createdAt,value
2019-04-07T00:00:00.434Z,28.60
2019-04-07T00:01:09.422Z,30.40
2019-04-07T00:02:04.484Z,28.20
2019-04-07T00:03:01.503Z,28.80
2019-04-07T00:04:05.293Z,27.80
2019-04-07T00:05:13.613Z,28.10
2019-04-07T00:06:03.104Z,28.90
2019-04-07T00:07:05.321Z,29.40
2019-04-07T00:08:05.914Z,28.90
2019-04-07T00:09:02.760Z,30.20
2019-04-07T00:10:03.874Z,29.70
2019-04-07T00:11:03.517Z,29.50
2019-04-07T00:12:03.829Z,30.90
2019-04-07T00:13:04.023Z,30.60
2019-04-07T00:14:04.074Z,29.40
2019-04-07T00:15:04.967Z,30.80
2019-04-07T00:16:04.663Z,29.70
2019-04-07T00:17:05.771Z,29.40
2019-04-07T00:18:09.322Z,29.10
2019-04-07T00:19:06.569Z,30.40
2019-04-07T00:20:07.449Z,30.30
2019-04-07T00:21:06.264Z,29.50
2019-04-07T00:22:08.281Z,29.60
2019-04-07T00:23:11.926Z,30.20
2019-04-07T00:24:09.291Z,29.80
2019-04-07T00:25:09.799Z,30.60
2019-04-07T00:26:14.378Z,29.80
2019-04-07T00:27:08.012Z,31.40
2019-04-07T00:28:10.061Z,29.50
2019-04-07T00:29:06.988Z,30.20
2019-04-07T00:30:11.021Z,29.10
2019-04-07T00:31:11.061Z,28.60
2019-04-07T00:32:11.642Z,28.10
2019-04-07T00:33:11.831Z,28.50
2019-04-07T00:34:09.601Z,28.50
2019-04-07T00:35:08.944Z,28.30
2019-04-07T00:36:09.564Z,27.60
2019-04-07T00:37:12.927Z,28.70
2019-04-07T00:38:10.574Z,27.60
2019-04-07T00:39:10.540Z,27.70
2019-04-07T00:40:17.565Z,27.20
2019-04-07T00:41:09.983Z,27.80
2019-04-07T00:42:10.470Z,26.40
2019-04-07T00:43:10.216Z,27.90
2019-04-07T00:44:10.487Z,27.20
2019-04-07T00:45:10.835Z,27.80
2019-04-07T00:46:11.535Z,28.20
2019-04-07T00:47:11.428Z,27.80
2019-04-07T00:48:12.302Z,28.40
2019-04-07T00:49:11.767Z,28.50
2019-04-07T00:50:12.063Z,27.90
2019-04-07T00:51:12.450Z,28.80
2019-04-07T00:52:12.872Z,28.90
2019-04-07T00:53:13.460Z,28.70
2019-04-07T00:54:12.935Z,30.10
2019-04-07T00:55:13.084Z,28.50
2019-04-07T00:56:13.176Z,29.70
2019-04-07T00:57:13.106Z,30.70
2019-04-07T00:58:13.755Z,29.60
2019-04-07T00:59:14.328Z,29.30
2019-04-07T01:00:16.494Z,28.70
2019-04-07T01:01:14.320Z,28.20
2019-04-07T01:02:14.627Z,28.80
2019-04-07T01:03:14.940Z,29.10
2019-04-07T01:04:15.332Z,28.70
2019-04-07T01:05:15.846Z,26.90
2019-04-07T01:06:15.631Z,27.50
2019-04-07T01:07:15.928Z,27.20
2019-04-07T01:08:16.252Z,27.90
2019-04-07T01:09:17.192Z,26.40
2019-04-07T01:10:17.434Z,27.80
2019-04-07T01:11:16.979Z,27.40
2019-04-07T01:13:17.364Z,27.10
2019-04-07T01:14:18.205Z,26.00
2019-04-07T01:15:17.715Z,26.70
2019-04-07T01:16:17.982Z,27.10
2019-04-07T01:17:19.067Z,27.20
2019-04-07T01:18:18.325Z,26.00
2019-04-07T01:19:18.907Z,26.70
2019-04-07T01:20:19.431Z,25.70
2019-04-07T01:21:19.467Z,26.20
2019-04-07T01:22:19.365Z,26.40
2019-04-07T01:23:20.297Z,26.90
2019-04-07T01:24:19.936Z,26.10
2019-04-07T01:25:20.393Z,25.40
2019-04-07T01:26:20.843Z,26.10
2019-04-07T01:27:21.116Z,26.60
2019-04-07T01:28:21.986Z,25.80
2019-04-07T01:29:22.221Z,25.10
2019-04-07T01:30:22.601Z,25.40
2019-04-07T01:31:22.569Z,25.80
2019-04-07T01:32:24.002Z,25.90
2019-04-07T01:33:23.587Z,25.20
2019-04-07T01:34:23.976Z,24.30
2019-04-07T01:35:23.861Z,26.00
2019-04-07T01:36:24.895Z,26.10
2019-04-07T01:37:24.432Z,25.50
2019-04-07T01:38:24.919Z,26.10
2019-04-07T01:39:25.198Z,26.10
2019-04-07T01:40:25.721Z,26.90
2019-04-07T01:41:26.330Z,26.70
2019-04-07T01:42:26.343Z,26.90
2019-04-07T01:43:26.656Z,25.90
2019-04-07T01:44:27.669Z,26.00
2019-04-07T01:45:27.975Z,25.80
2019-04-07T01:46:27.655Z,26.30
2019-04-07T01:47:27.763Z,26.00
2019-04-07T01:48:31.463Z,26.70
2019-04-07T01:49:28.758Z,26.70
2019-04-07T01:51:28.308Z,27.10
2019-04-07T01:52:28.862Z,27.00
2019-04-07T01:53:29.017Z,26.80
2019-04-07T01:54:28.930Z,26.90
2019-04-07T01:55:29.919Z,26.10
2019-04-07T01:56:29.627Z,26.40
2019-04-07T01:57:30.138Z,28.00
2019-04-07T01:58:29.806Z,26.70
2019-04-07T01:59:30.129Z,28.10
2019-04-07T02:00:30.104Z,26.70
2019-04-07T02:01:31.316Z,26.80
2019-04-07T02:02:31.090Z,27.20
2019-04-07T02:03:30.898Z,27.80
2019-04-07T02:04:31.243Z,29.10
2019-04-07T02:05:31.471Z,28.20
2019-04-07T02:06:32.063Z,28.30
2019-04-07T02:07:32.643Z,28.30
2019-04-07T02:08:32.902Z,27.30
2019-04-07T02:09:32.796Z,28.10
2019-04-07T02:10:33.896Z,28.60
2019-04-07T02:11:33.948Z,27.70
2019-04-07T02:12:35.060Z,27.60
2019-04-07T02:13:35.026Z,28.10
2019-04-07T02:14:34.610Z,28.00
2019-04-07T02:15:35.137Z,27.10
2019-04-07T02:16:35.659Z,27.70
2019-04-07T02:17:36.318Z,28.60
2019-04-07T02:18:35.846Z,27.90
2019-04-07T02:19:36.010Z,28.30
2019-04-07T02:20:36.287Z,27.00
2019-04-07T02:21:36.936Z,27.10
2019-04-07T02:22:37.702Z,26.30
2019-04-07T02:23:37.291Z,27.30
2019-04-07T02:24:38.005Z,27.40
2019-04-07T02:25:38.205Z,26.30
2019-04-07T02:26:39.026Z,26.30
2019-04-07T02:27:39.519Z,26.90
2019-04-07T02:28:39.252Z,26.60
2019-04-07T02:29:40.044Z,26.10
2019-04-07T02:30:39.605Z,26.60
2019-04-07T02:31:40.177Z,27.00
2019-04-07T02:32:40.239Z,27.30
2019-04-07T02:33:41.007Z,27.20
2019-04-07T02:34:42.340Z,25.80
2019-04-07T02:35:41.875Z,27.50
2019-04-07T02:36:42.012Z,26.90
2019-04-07T02:37:42.615Z,28.50
2019-04-07T02:38:42.440Z,26.70
2019-04-07T02:39:42.453Z,26.80
2019-04-07T02:40:43.036Z,26.40
2019-04-07T02:41:42.995Z,27.20
2019-04-07T02:42:43.433Z,27.40
2019-04-07T02:43:44.509Z,27.10
2019-04-07T02:44:43.408Z,27.50
2019-04-07T02:45:43.392Z,27.80
2019-04-07T02:46:44.126Z,26.20
2019-04-07T02:47:44.587Z,26.10
2019-04-07T02:48:44.657Z,25.90
2019-04-07T02:49:44.431Z,26.90
2019-04-07T02:50:45.138Z,25.30
2019-04-07T02:51:45.519Z,25.90
2019-04-07T02:52:45.243Z,24.60
2019-04-07T02:53:45.522Z,26.90
2019-04-07T02:54:46.360Z,24.80
2019-04-07T02:55:45.702Z,23.50
2019-04-07T02:56:46.242Z,24.00
2019-04-07T02:57:47.433Z,24.50
2019-04-07T02:59:46.481Z,25.00
2019-04-07T03:00:46.894Z,23.90
2019-04-07T03:01:46.897Z,24.60
2019-04-07T03:02:47.699Z,25.10
2019-04-07T03:03:48.254Z,23.50
2019-04-07T03:04:47.549Z,25.00
2019-04-07T03:05:47.768Z,23.70
2019-04-07T03:06:52.513Z,23.30
2019-04-07T03:07:48.742Z,25.10
2019-04-07T03:08:49.208Z,23.00
2019-04-07T03:09:49.170Z,23.90
2019-04-07T03:10:49.607Z,22.70
2019-04-07T03:11:49.401Z,23.60
2019-04-07T03:12:49.886Z,24.70
2019-04-07T03:13:50.408Z,23.20
2019-04-07T03:14:50.597Z,24.00
2019-04-07T03:15:50.557Z,23.30
2019-04-07T03:16:50.406Z,23.60
2019-04-07T03:17:50.566Z,24.40
2019-04-07T03:18:50.988Z,22.80
2019-04-07T03:19:52.178Z,23.10
2019-04-07T03:20:51.766Z,24.90
2019-04-07T03:21:52.506Z,24.20
2019-04-07T03:22:52.652Z,22.40
2019-04-07T03:23:52.975Z,23.40
2019-04-07T03:24:53.062Z,23.20
2019-04-07T03:25:52.863Z,25.60
2019-04-07T03:26:53.545Z,24.00
2019-04-07T03:27:53.303Z,24.50
2019-04-07T03:28:54.555Z,25.30
2019-04-07T03:29:54.255Z,25.20
2019-04-07T03:30:56.652Z,24.60
2019-04-07T03:31:56.718Z,25.10
2019-04-07T03:32:55.347Z,25.60
2019-04-07T03:33:56.679Z,24.70
2019-04-07T03:34:56.287Z,25.30
2019-04-07T03:35:57.110Z,25.10
2019-04-07T03:37:57.179Z,26.90
2019-04-07T03:38:56.287Z,29.90
2019-04-07T03:39:56.930Z,29.00
2019-04-07T03:40:56.963Z,29.10
2019-04-07T03:41:57.094Z,29.10
2019-04-07T03:42:57.423Z,29.00
2019-04-07T03:43:57.348Z,28.90
2019-04-07T03:44:57.427Z,30.00
2019-04-07T03:45:57.845Z,29.30
2019-04-07T03:46:58.923Z,29.30
2019-04-07T03:47:58.921Z,28.00
2019-04-07T03:48:58.885Z,28.00
2019-04-07T03:49:59.713Z,29.60
2019-04-07T03:50:59.933Z,28.60
2019-04-07T03:51:59.887Z,29.30
2019-04-07T03:52:59.232Z,29.50
2019-04-07T03:54:00.505Z,27.80
2019-04-07T03:54:59.996Z,28.90
2019-04-07T03:56:00.121Z,30.20
2019-04-07T03:57:00.520Z,28.40
2019-04-07T03:58:01.641Z,26.60
2019-04-07T03:59:01.399Z,28.70
2019-04-07T04:00:02.277Z,28.50
2019-04-07T04:01:01.384Z,28.80
2019-04-07T04:02:01.786Z,28.10
2019-04-07T04:03:02.677Z,28.90
2019-04-07T04:04:02.332Z,27.90
2019-04-07T04:05:03.002Z,28.20
2019-04-07T04:06:02.765Z,28.90
2019-04-07T04:07:18.133Z,29.70
2019-04-07T04:08:02.943Z,30.10
2019-04-07T04:09:03.373Z,30.00
2019-04-07T04:10:03.604Z,29.30
2019-04-07T04:11:04.228Z,30.50
2019-04-07T04:12:05.032Z,30.20
2019-04-07T04:13:05.147Z,30.50
2019-04-07T04:14:04.904Z,29.60
2019-04-07T04:15:04.877Z,30.20
2019-04-07T04:16:05.981Z,30.00
2019-04-07T04:17:05.094Z,30.20
2019-04-07T04:18:05.538Z,29.70
2019-04-07T04:19:06.753Z,30.70
2019-04-07T04:20:06.217Z,29.50
2019-04-07T04:21:06.972Z,29.30
2019-04-07T04:22:07.169Z,27.70
2019-04-07T04:23:06.498Z,28.30
2019-04-07T04:24:06.776Z,28.40
2019-04-07T04:25:08.474Z,26.90
2019-04-07T04:26:08.469Z,28.10
2019-04-07T04:27:08.649Z,28.50
2019-04-07T04:28:08.109Z,28.60
2019-04-07T04:29:08.383Z,28.10
2019-04-07T04:30:10.243Z,27.00
2019-04-07T04:31:09.014Z,27.60
2019-04-07T04:32:09.502Z,27.80
2019-04-07T04:33:10.302Z,27.70
2019-04-07T04:34:09.971Z,27.70
2019-04-07T04:35:10.797Z,27.70
2019-04-07T04:36:09.929Z,27.00
2019-04-07T04:37:09.770Z,27.30
2019-04-07T04:38:10.306Z,27.30
2019-04-07T04:39:10.402Z,28.60
2019-04-07T04:40:10.939Z,27.50
2019-04-07T04:41:11.256Z,28.20
2019-04-07T04:42:11.522Z,26.30
2019-04-07T04:43:11.144Z,27.20
2019-04-07T04:44:11.434Z,27.30
2019-04-07T04:45:11.818Z,24.80
2019-04-07T04:46:12.716Z,26.80
2019-04-07T04:47:12.880Z,26.70
2019-04-07T04:48:12.879Z,26.80
2019-04-07T04:49:13.565Z,28.10
2019-04-07T04:50:14.812Z,27.90
2019-04-07T04:51:13.981Z,26.90
2019-04-07T04:52:13.757Z,27.50
2019-04-07T04:53:15.001Z,27.50
2019-04-07T04:54:14.521Z,27.90
2019-04-07T04:55:15.343Z,25.90
2019-04-07T04:56:14.676Z,25.70
2019-04-07T04:57:14.932Z,27.00
2019-04-07T04:59:15.455Z,27.00
2019-04-07T05:00:15.818Z,26.80
2019-04-07T05:01:15.371Z,26.90
2019-04-07T05:02:15.949Z,26.60
2019-04-07T05:03:16.022Z,26.90
2019-04-07T05:04:16.223Z,27.70
2019-04-07T05:05:17.030Z,25.80
2019-04-07T05:06:16.740Z,26.50
2019-04-07T05:07:17.163Z,27.50
2019-04-07T05:08:17.700Z,24.80
2019-04-07T05:09:18.094Z,24.30
2019-04-07T05:10:19.163Z,25.70
2019-04-07T05:11:19.024Z,25.40
2019-04-07T05:12:18.837Z,26.20
2019-04-07T05:13:19.877Z,24.00
2019-04-07T05:14:19.782Z,26.60
2019-04-07T05:15:20.050Z,25.70
2019-04-07T05:16:21.368Z,26.20
2019-04-07T05:17:20.939Z,26.40
2019-04-07T05:18:21.136Z,27.60
2019-04-07T05:19:21.393Z,27.10
2019-04-07T05:20:21.780Z,27.10
2019-04-07T05:21:22.339Z,25.60
2019-04-07T05:22:22.591Z,26.70
2019-04-07T05:23:23.093Z,26.00
2019-04-07T05:24:23.179Z,27.10
2019-04-07T05:25:23.711Z,27.30
2019-04-07T05:26:24.061Z,25.50
2019-04-07T05:27:24.039Z,26.70
2019-04-07T05:28:24.459Z,26.00
2019-04-07T05:29:24.792Z,26.50
2019-04-07T05:30:24.943Z,26.20
2019-04-07T05:31:25.832Z,25.00
2019-04-07T05:32:25.514Z,25.20
2019-04-07T05:33:25.807Z,25.90
2019-04-07T05:34:26.614Z,24.40
2019-04-07T05:35:26.396Z,25.50
2019-04-07T05:36:26.990Z,25.40
2019-04-07T05:37:26.929Z,23.80
2019-04-07T05:38:27.246Z,24.00
2019-04-07T05:39:28.281Z,23.60
2019-04-07T05:40:28.006Z,23.50
2019-04-07T05:41:28.492Z,21.90
2019-04-07T05:42:28.889Z,22.70
2019-04-07T05:43:29.039Z,21.50
2019-04-07T05:44:29.351Z,21.70
2019-04-07T05:45:30.415Z,20.50
2019-04-07T05:46:30.282Z,20.90
2019-04-07T05:47:31.412Z,20.20
2019-04-07T05:48:30.689Z,20.00
2019-04-07T05:49:31.399Z,20.30
2019-04-07T05:50:31.838Z,19.40
2019-04-07T05:51:31.770Z,20.30
2019-04-07T05:52:35.384Z,19.00
2019-04-07T05:53:33.230Z,18.20
2019-04-07T05:54:33.996Z,18.00
2019-04-07T05:55:33.436Z,18.80
2019-04-07T05:56:33.381Z,17.50
2019-04-07T05:57:35.266Z,18.60
2019-04-07T05:58:37.562Z,19.20
2019-04-07T05:59:34.185Z,18.70
2019-04-07T06:00:34.150Z,17.70
2019-04-07T06:01:35.418Z,18.70
2019-04-07T06:02:35.294Z,17.80
2019-04-07T06:03:38.722Z,17.20
2019-04-07T06:04:34.942Z,17.80
2019-04-07T06:05:35.699Z,16.70
2019-04-07T06:06:35.565Z,18.10
2019-04-07T06:07:36.909Z,16.20
2019-04-07T06:08:39.183Z,16.00
2019-04-07T06:09:37.180Z,16.50
2019-04-07T06:10:37.122Z,16.10
2019-04-07T06:11:36.804Z,15.00
2019-04-07T06:12:40.860Z,15.90
2019-04-07T06:13:38.006Z,14.70
2019-04-07T06:14:38.035Z,16.10
2019-04-07T06:15:38.217Z,15.60
2019-04-07T06:16:38.761Z,15.60
2019-04-07T06:17:39.117Z,16.60
2019-04-07T06:18:38.859Z,14.50
2019-04-07T06:19:41.182Z,15.80
2019-04-07T06:20:39.879Z,16.50
2019-04-07T06:21:39.945Z,15.70
2019-04-07T06:22:40.438Z,14.70
2019-04-07T06:23:40.807Z,15.40
2019-04-07T06:24:41.108Z,15.20
2019-04-07T06:25:43.286Z,15.40
2019-04-07T06:26:42.112Z,15.00
2019-04-07T06:27:44.810Z,15.50
2019-04-07T06:28:42.209Z,15.20
2019-04-07T06:29:42.672Z,14.50
2019-04-07T06:30:43.042Z,14.30
2019-04-07T06:31:43.585Z,13.50
2019-04-07T06:32:44.680Z,14.20
2019-04-07T06:33:43.780Z,13.80
2019-04-07T06:34:44.464Z,13.60
2019-04-07T06:35:45.646Z,13.30
2019-04-07T06:36:45.073Z,13.70
2019-04-07T06:37:45.455Z,12.80
2019-04-07T06:38:49.792Z,13.90
2019-04-07T06:39:50.061Z,13.20
2019-04-07T06:40:46.002Z,13.20
2019-04-07T06:41:46.549Z,12.70
2019-04-07T06:42:46.782Z,12.80
2019-04-07T06:43:46.809Z,12.10
2019-04-07T06:44:50.079Z,12.90
2019-04-07T06:45:47.580Z,13.20
2019-04-07T06:46:47.992Z,12.40
2019-04-07T06:47:48.620Z,11.70
2019-04-07T06:48:48.701Z,12.60
2019-04-07T06:49:48.197Z,12.50
2019-04-07T06:50:54.861Z,12.30
2019-04-07T06:51:47.997Z,11.20
2019-04-07T06:52:48.796Z,12.70
2019-04-07T06:53:49.084Z,12.80
2019-04-07T06:54:52.031Z,13.40
2019-04-07T06:55:49.680Z,12.30
2019-04-07T06:56:50.019Z,13.20
2019-04-07T06:57:49.839Z,12.30
2019-04-07T06:58:50.423Z,12.40
2019-04-07T06:59:50.144Z,11.90
2019-04-07T07:00:53.596Z,12.50
2019-04-07T07:01:50.538Z,12.60
2019-04-07T07:02:50.640Z,11.70
2019-04-07T07:03:51.448Z,12.40
2019-04-07T07:04:50.828Z,12.20
2019-04-07T07:05:51.492Z,12.40
2019-04-07T07:06:51.478Z,12.50
2019-04-07T07:07:52.068Z,11.80
2019-04-07T07:08:54.172Z,12.30
2019-04-07T07:09:52.276Z,11.60
2019-04-07T07:10:52.222Z,12.10
2019-04-07T07:11:52.786Z,10.90
2019-04-07T07:12:52.976Z,11.70
2019-04-07T07:13:53.157Z,11.10
2019-04-07T07:14:53.858Z,11.10
2019-04-07T07:15:54.076Z,11.30
2019-04-07T07:16:54.447Z,11.80
2019-04-07T07:17:56.994Z,11.40
2019-04-07T07:18:56.037Z,11.00
2019-04-07T07:19:56.636Z,11.20
2019-04-07T07:20:55.674Z,11.00
2019-04-07T07:21:55.765Z,10.20
2019-04-07T07:22:56.094Z,10.60
2019-04-07T07:23:56.845Z,11.10
2019-04-07T07:24:59.276Z,10.90
2019-04-07T07:26:00.951Z,11.20
2019-04-07T07:26:58.055Z,10.40
2019-04-07T07:27:57.777Z,10.60
2019-04-07T07:28:58.451Z,10.60
2019-04-07T07:29:57.918Z,9.60
2019-04-07T07:30:58.891Z,9.80
2019-04-07T07:32:01.944Z,9.90
2019-04-07T07:32:59.560Z,10.10
2019-04-07T07:33:59.271Z,10.20
2019-04-07T07:34:59.725Z,10.20
2019-04-07T07:36:00.023Z,9.90
2019-04-07T07:37:00.377Z,10.30
2019-04-07T07:38:00.999Z,10.20
2019-04-07T07:39:02.490Z,10.50
2019-04-07T07:40:02.122Z,10.50
2019-04-07T07:41:03.575Z,10.70
2019-04-07T07:42:01.960Z,10.30
2019-04-07T07:43:02.299Z,9.80
2019-04-07T07:44:03.779Z,9.70
2019-04-07T07:45:02.650Z,8.90
2019-04-07T07:46:03.137Z,9.70
2019-04-07T07:47:02.719Z,9.80
2019-04-07T07:48:03.125Z,9.90
2019-04-07T07:49:04.159Z,8.90
2019-04-07T07:50:05.454Z,9.00
2019-04-07T07:51:04.089Z,8.50
2019-04-07T07:52:03.532Z,9.10
2019-04-07T07:53:03.626Z,9.30
2019-04-07T07:54:04.643Z,8.40
2019-04-07T07:55:04.063Z,8.90
2019-04-07T07:56:08.407Z,9.00
2019-04-07T07:57:04.953Z,8.10
2019-04-07T07:58:04.444Z,8.70
2019-04-07T07:59:04.508Z,7.90
2019-04-07T08:00:06.927Z,7.60
2019-04-07T08:01:05.442Z,7.30
2019-04-07T08:02:05.263Z,7.40
2019-04-07T08:03:05.914Z,7.20
2019-04-07T08:04:06.308Z,7.90
2019-04-07T08:05:07.158Z,7.30
2019-04-07T08:06:08.342Z,6.90
2019-04-07T08:07:10.814Z,7.60
2019-04-07T08:08:07.307Z,7.30
2019-04-07T08:09:13.754Z,7.50
2019-04-07T08:10:08.556Z,8.30
2019-04-07T08:11:08.360Z,7.90
2019-04-07T08:12:09.597Z,7.60
2019-04-07T08:13:09.114Z,7.50
2019-04-07T08:14:09.971Z,8.10
2019-04-07T08:15:10.041Z,8.60
2019-04-07T08:16:10.893Z,8.60
2019-04-07T08:17:10.580Z,8.20
2019-04-07T08:18:10.294Z,7.80
2019-04-07T08:19:10.973Z,8.30
2019-04-07T08:20:12.093Z,7.80
2019-04-07T08:21:12.451Z,8.00
2019-04-07T08:22:11.986Z,8.10
2019-04-07T08:23:13.206Z,7.20
2019-04-07T08:24:16.410Z,7.50
2019-04-07T08:25:12.722Z,7.80
2019-04-07T08:26:13.358Z,7.80
2019-04-07T08:27:12.809Z,7.50
2019-04-07T08:28:13.568Z,7.70
2019-04-07T08:29:13.902Z,7.60
2019-04-07T08:30:13.985Z,7.40
2019-04-07T08:31:17.758Z,7.90
2019-04-07T08:32:14.448Z,7.80
2019-04-07T08:33:14.839Z,7.10
2019-04-07T08:34:15.164Z,7.60
2019-04-07T08:35:16.489Z,7.50
2019-04-07T08:36:15.581Z,8.30
2019-04-07T08:37:16.255Z,7.30
2019-04-07T08:38:19.566Z,7.90
2019-04-07T08:39:23.732Z,7.50
2019-04-07T08:40:17.203Z,7.10
2019-04-07T08:41:17.002Z,7.50
2019-04-07T08:42:18.762Z,7.80
2019-04-07T08:43:21.326Z,8.30
2019-04-07T08:44:17.708Z,7.50
2019-04-07T08:45:18.935Z,7.80
2019-04-07T08:46:18.882Z,7.90
2019-04-07T08:47:21.917Z,7.60
2019-04-07T08:48:20.832Z,7.40
2019-04-07T08:49:23.573Z,7.50
2019-04-07T08:50:21.480Z,7.40
2019-04-07T08:51:21.222Z,6.90
2019-04-07T08:52:21.148Z,8.00
2019-04-07T08:53:20.790Z,8.40
2019-04-07T08:54:21.494Z,7.80
2019-04-07T08:55:21.859Z,8.50
2019-04-07T08:56:24.826Z,7.50
2019-04-07T08:57:22.571Z,7.40
2019-04-07T08:58:25.748Z,7.40
2019-04-07T08:59:22.183Z,7.80
2019-04-07T09:00:22.469Z,7.80
2019-04-07T09:01:22.812Z,8.00
2019-04-07T09:02:26.063Z,7.30
2019-04-07T09:03:23.571Z,7.70
2019-04-07T09:04:26.641Z,7.50
2019-04-07T09:05:27.754Z,7.20
2019-04-07T09:06:27.273Z,7.00
2019-04-07T09:07:24.927Z,6.60
2019-04-07T09:08:26.051Z,7.40
2019-04-07T09:09:33.902Z,6.80
2019-04-07T09:10:25.969Z,7.30
2019-04-07T09:11:26.018Z,6.40
2019-04-07T09:12:30.958Z,7.50
2019-04-07T09:13:26.439Z,6.80
2019-04-07T09:14:27.240Z,6.60
2019-04-07T09:15:27.054Z,6.80
2019-04-07T09:16:27.984Z,7.50
2019-04-07T09:17:32.168Z,7.00
2019-04-07T09:18:27.768Z,6.90
2019-04-07T09:19:27.743Z,7.00
2019-04-07T09:20:27.925Z,6.10
2019-04-07T09:21:37.249Z,6.40
2019-04-07T09:22:29.784Z,6.90
2019-04-07T09:23:29.476Z,7.10
2019-04-07T09:24:31.429Z,6.50
2019-04-07T09:25:31.896Z,6.60
2019-04-07T09:26:29.755Z,6.50
2019-04-07T09:27:30.053Z,6.00
2019-04-07T09:28:29.913Z,5.70
2019-04-07T09:29:31.261Z,5.50
2019-04-07T09:30:30.791Z,6.30
2019-04-07T09:31:30.487Z,6.10
2019-04-07T09:32:30.902Z,6.50
2019-04-07T09:33:31.750Z,6.40
2019-04-07T09:34:31.093Z,6.00
2019-04-07T09:35:32.063Z,5.90
2019-04-07T09:36:33.453Z,6.20
2019-04-07T09:37:32.363Z,6.20
2019-04-07T09:38:32.003Z,6.60
2019-04-07T09:39:50.630Z,6.10
2019-04-07T09:40:32.688Z,5.80
2019-04-07T09:41:32.861Z,6.10
2019-04-07T09:42:33.386Z,6.30
2019-04-07T09:43:33.507Z,7.00
2019-04-07T09:44:36.063Z,6.20
2019-04-07T09:45:34.534Z,6.60
2019-04-07T09:46:35.481Z,6.70
2019-04-07T09:47:35.828Z,6.50
2019-04-07T09:48:35.377Z,6.70
2019-04-07T09:49:35.348Z,6.10
2019-04-07T09:50:34.841Z,6.70
2019-04-07T09:51:37.586Z,6.60
2019-04-07T09:52:34.896Z,6.50
2019-04-07T09:53:36.039Z,6.30
2019-04-07T09:54:35.677Z,5.70
2019-04-07T09:55:36.758Z,5.20
2019-04-07T09:56:36.522Z,5.20
2019-04-07T09:57:38.779Z,5.60
2019-04-07T09:58:39.222Z,5.50
2019-04-07T09:59:37.489Z,5.40
2019-04-07T10:00:38.758Z,5.20
2019-04-07T10:01:37.199Z,4.80
2019-04-07T10:02:38.383Z,4.60
2019-04-07T10:03:38.649Z,5.00
2019-04-07T10:04:42.202Z,5.10
2019-04-07T10:05:40.417Z,4.50
2019-04-07T10:06:39.715Z,4.60
2019-04-07T10:07:42.322Z,4.50
2019-04-07T10:08:39.428Z,3.90
2019-04-07T10:09:40.033Z,4.70
2019-04-07T10:10:40.030Z,4.40
2019-04-07T10:11:40.157Z,4.30
2019-04-07T10:12:40.447Z,4.20
2019-04-07T10:13:40.955Z,4.40
2019-04-07T10:14:42.141Z,3.90
2019-04-07T10:15:42.022Z,3.80
2019-04-07T10:16:41.940Z,3.40
2019-04-07T10:17:41.902Z,3.30
2019-04-07T10:18:42.799Z,3.00
2019-04-07T10:19:42.657Z,3.00
2019-04-07T10:20:42.941Z,3.10
2019-04-07T10:21:42.969Z,3.00
2019-04-07T10:22:43.004Z,2.90
2019-04-07T10:23:43.028Z,2.70
2019-04-07T10:24:43.536Z,2.90
2019-04-07T10:25:44.456Z,2.70
2019-04-07T10:26:44.114Z,2.90
2019-04-07T10:27:45.142Z,3.20
2019-04-07T10:28:45.400Z,3.20
2019-04-07T10:29:45.241Z,3.10
2019-04-07T10:30:45.823Z,3.40
2019-04-07T10:31:45.297Z,3.80
2019-04-07T10:32:46.306Z,3.90
2019-04-07T10:33:46.078Z,3.20
2019-04-07T10:34:46.135Z,3.10
2019-04-07T10:35:46.776Z,3.50
2019-04-07T10:36:47.494Z,2.80
2019-04-07T10:37:48.038Z,3.10
2019-04-07T10:38:48.018Z,3.10
2019-04-07T10:39:48.370Z,3.30
2019-04-07T10:40:47.985Z,3.00
2019-04-07T10:41:48.285Z,2.60
2019-04-07T10:42:49.077Z,2.70
2019-04-07T10:43:48.748Z,2.60
2019-04-07T10:44:49.271Z,3.20
2019-04-07T10:45:49.386Z,2.80
2019-04-07T10:46:49.369Z,3.00
2019-04-07T10:48:49.866Z,2.60
2019-04-07T10:49:59.255Z,2.80
2019-04-07T10:50:51.813Z,2.70
2019-04-07T10:51:51.267Z,3.20
2019-04-07T10:52:51.437Z,2.90
2019-04-07T10:53:51.241Z,2.80
2019-04-07T10:54:51.242Z,3.00
2019-04-07T10:55:52.147Z,2.90
2019-04-07T10:56:51.959Z,2.60
2019-04-07T10:57:52.416Z,2.50
2019-04-07T10:58:52.758Z,2.80
2019-04-07T10:59:53.285Z,3.00
2019-04-07T11:00:53.751Z,2.80
2019-04-07T11:01:54.523Z,3.20
2019-04-07T11:02:55.715Z,2.60
2019-04-07T11:03:55.631Z,2.70
2019-04-07T11:04:55.220Z,2.60
2019-04-07T11:05:54.958Z,3.00
2019-04-07T11:06:54.965Z,2.60
2019-04-07T11:07:54.947Z,2.90
2019-04-07T11:08:55.539Z,2.90
2019-04-07T11:09:55.515Z,2.80
2019-04-07T11:10:55.677Z,3.00
2019-04-07T11:11:55.599Z,3.10
2019-04-07T11:12:56.116Z,2.80
2019-04-07T11:13:56.391Z,2.60
2019-04-07T11:14:57.119Z,2.90
2019-04-07T11:15:57.676Z,2.80
2019-04-07T11:16:59.889Z,2.60
2019-04-07T11:17:58.178Z,2.60
2019-04-07T11:18:58.569Z,2.80
2019-04-07T11:19:59.043Z,2.60
2019-04-07T11:20:58.713Z,2.70
2019-04-07T11:21:58.769Z,2.80
2019-04-07T11:22:58.827Z,3.00
2019-04-07T11:23:59.002Z,3.30
2019-04-07T11:24:59.310Z,3.20
2019-04-07T11:26:00.598Z,2.50
2019-04-07T11:27:00.438Z,3.00
2019-04-07T11:28:01.385Z,3.10
2019-04-07T11:29:01.521Z,3.00
2019-04-07T11:30:01.103Z,2.90
2019-04-07T11:31:02.215Z,2.70
2019-04-07T11:32:01.528Z,2.60
2019-04-07T11:33:01.869Z,3.00
2019-04-07T11:34:01.477Z,2.20
2019-04-07T11:35:01.834Z,2.20
2019-04-07T11:36:02.418Z,2.20
2019-04-07T11:37:02.429Z,2.40
2019-04-07T11:38:02.854Z,2.90
2019-04-07T11:39:03.114Z,2.40
2019-04-07T11:40:04.659Z,2.50
2019-04-07T11:41:04.295Z,2.00
2019-04-07T11:42:05.038Z,2.20
2019-04-07T11:43:04.436Z,2.10
2019-04-07T11:44:05.375Z,2.30
2019-04-07T11:45:05.002Z,2.50
2019-04-07T11:46:05.722Z,2.30
2019-04-07T11:47:05.985Z,2.20
2019-04-07T11:48:06.626Z,2.00
2019-04-07T11:49:07.395Z,2.10
2019-04-07T11:50:06.089Z,2.10
2019-04-07T11:51:06.368Z,2.00
2019-04-07T11:52:07.138Z,1.90
2019-04-07T11:53:07.554Z,1.90
2019-04-07T11:54:07.716Z,2.20
2019-04-07T11:55:08.558Z,2.80
2019-04-07T11:56:10.779Z,2.80
2019-04-07T11:57:08.691Z,2.50
2019-04-07T11:58:15.078Z,2.10
2019-04-07T11:59:10.100Z,1.30
2019-04-07T12:00:09.684Z,1.80
2019-04-07T12:01:12.963Z,1.50
2019-04-07T12:03:10.582Z,1.90
2019-04-07T12:04:11.136Z,1.80
2019-04-07T12:05:10.604Z,1.50
2019-04-07T12:06:11.589Z,1.80
2019-04-07T12:07:11.259Z,2.00
2019-04-07T12:08:11.763Z,2.40
2019-04-07T12:09:12.018Z,1.90
2019-04-07T12:11:13.602Z,1.80
2019-04-07T12:12:12.634Z,1.80
2019-04-07T12:13:13.299Z,1.90
2019-04-07T12:14:15.040Z,1.80
2019-04-07T12:15:13.125Z,1.70
2019-04-07T12:16:13.502Z,1.90
2019-04-07T12:17:13.841Z,2.20
2019-04-07T12:18:17.455Z,2.00
2019-04-07T12:19:13.957Z,2.40
2019-04-07T12:20:14.201Z,2.20
2019-04-07T12:21:21.797Z,2.20
2019-04-07T12:22:14.444Z,2.20
2019-04-07T12:23:20.973Z,1.70
2019-04-07T12:24:14.847Z,1.90
2019-04-07T12:25:15.829Z,1.80
2019-04-07T12:26:16.030Z,2.00
2019-04-07T12:27:16.221Z,1.60
2019-04-07T12:28:18.899Z,1.90
2019-04-07T12:29:16.752Z,2.20
2019-04-07T12:30:16.662Z,2.40
2019-04-07T12:31:16.381Z,2.00
2019-04-07T12:32:17.105Z,2.00
2019-04-07T12:33:17.903Z,2.10
2019-04-07T12:34:17.809Z,2.00
2019-04-07T12:35:19.278Z,2.10
2019-04-07T12:36:18.526Z,2.00
2019-04-07T12:37:18.783Z,2.10
2019-04-07T12:38:19.241Z,1.70
2019-04-07T12:39:19.101Z,1.90
2019-04-07T12:40:22.436Z,2.20
2019-04-07T12:41:21.986Z,1.90
2019-04-07T12:42:20.311Z,2.00
2019-04-07T12:43:20.189Z,2.20
2019-04-07T12:44:20.979Z,2.20
2019-04-07T12:45:20.666Z,2.40
2019-04-07T12:46:21.094Z,2.20
2019-04-07T12:47:21.043Z,1.90
2019-04-07T12:48:21.229Z,1.70
2019-04-07T12:49:21.052Z,1.80
2019-04-07T12:50:21.910Z,1.70
2019-04-07T12:51:22.376Z,1.90
2019-04-07T12:52:26.191Z,1.80
2019-04-07T12:53:21.964Z,2.00
2019-04-07T12:54:23.315Z,1.90
2019-04-07T12:55:22.625Z,1.90
2019-04-07T12:56:23.228Z,1.80
2019-04-07T12:57:23.111Z,1.90
2019-04-07T12:58:24.409Z,2.00
2019-04-07T12:59:24.048Z,1.90
2019-04-07T13:00:24.945Z,2.00
2019-04-07T13:02:25.695Z,1.70
2019-04-07T13:03:25.373Z,2.40
2019-04-07T13:04:25.476Z,1.80
2019-04-07T13:05:24.927Z,2.00
2019-04-07T13:06:25.600Z,1.90
2019-04-07T13:07:25.319Z,2.20
2019-04-07T13:08:25.879Z,1.90
2019-04-07T13:09:30.992Z,1.90
2019-04-07T13:10:26.842Z,1.60
2019-04-07T13:11:33.770Z,1.90
2019-04-07T13:12:27.295Z,1.80
2019-04-07T13:13:29.498Z,2.00
2019-04-07T13:14:27.116Z,1.70
2019-04-07T13:15:27.073Z,2.00